sensor_id;sensor_type;location;lat;lon;timestamp;P1;durP1;ratioP1;P2;durP2;ratioP2
1993;SDS011;998;49.906;10.908;2022-11-15T00:00:47;8.60;;;5.37;;
1993;SDS011;998;49.906;10.908;2022-11-15T00:03:15;9.07;;;6.20;;
1993;SDS011;998;49.906;10.908;2022-11-15T00:05:43;6.70;;;4.37;;
1993;SDS011;998;49.906;10.908;2022-11-15T00:08:10;9.73;;;5.20;;
1993;SDS011;998;49.906;10.908;2022-11-15T00:10:38;8.70;;;4.70;;
1993;SDS011;998;49.906;10.908;2022-11-15T00:13:06;9.77;;;4.83;;
1993;SDS011;998;49.906;10.908;2022-11-15T00:15:34;7.23;;;4.67;;
1993;SDS011;998;49.906;10.908;2022-11-15T00:18:04;10.00;;;5.27;;
1993;SDS011;998;49.906;10.908;2022-11-15T00:20:33;6.93;;;4.40;;
1993;SDS011;998;49.906;10.908;2022-11-15T00:23:00;7.33;;;4.20;;
1993;SDS011;998;49.906;10.908;2022-11-15T00:25:30;7.40;;;3.97;;
1993;SDS011;998;49.906;10.908;2022-11-15T00:27:57;8.27;;;4.87;;
1993;SDS011;998;49.906;10.908;2022-11-15T00:30:26;7.60;;;4.40;;
1993;SDS011;998;49.906;10.908;2022-11-15T00:32:53;7.20;;;4.60;;
1993;SDS011;998;49.906;10.908;2022-11-15T00:35:22;9.53;;;5.07;;
1993;SDS011;998;49.906;10.908;2022-11-15T00:37:50;7.63;;;5.30;;
1993;SDS011;998;49.906;10.908;2022-11-15T00:40:19;10.00;;;4.77;;
1993;SDS011;998;49.906;10.908;2022-11-15T00:42:46;11.37;;;6.10;;
1993;SDS011;998;49.906;10.908;2022-11-15T00:45:14;8.87;;;4.40;;
1993;SDS011;998;49.906;10.908;2022-11-15T00:47:43;7.77;;;4.60;;
1993;SDS011;998;49.906;10.908;2022-11-15T00:50:11;6.10;;;4.30;;
1993;SDS011;998;49.906;10.908;2022-11-15T00:52:40;8.13;;;4.00;;
1993;SDS011;998;49.906;10.908;2022-11-15T00:55:08;6.87;;;3.90;;
1993;SDS011;998;49.906;10.908;2022-11-15T00:57:40;7.80;;;4.10;;
1993;SDS011;998;49.906;10.908;2022-11-15T01:00:07;7.57;;;4.40;;
1993;SDS011;998;49.906;10.908;2022-11-15T01:02:35;9.27;;;4.37;;
1993;SDS011;998;49.906;10.908;2022-11-15T01:05:03;6.60;;;4.23;;
1993;SDS011;998;49.906;10.908;2022-11-15T01:07:31;7.87;;;4.90;;
1993;SDS011;998;49.906;10.908;2022-11-15T01:10:00;9.30;;;4.73;;
1993;SDS011;998;49.906;10.908;2022-11-15T01:12:27;7.80;;;4.77;;
1993;SDS011;998;49.906;10.908;2022-11-15T01:14:55;10.90;;;4.73;;
1993;SDS011;998;49.906;10.908;2022-11-15T01:17:22;10.53;;;5.33;;
1993;SDS011;998;49.906;10.908;2022-11-15T01:19:49;8.37;;;4.70;;
1993;SDS011;998;49.906;10.908;2022-11-15T01:22:17;14.03;;;3.93;;
1993;SDS011;998;49.906;10.908;2022-11-15T01:24:44;7.83;;;5.00;;
1993;SDS011;998;49.906;10.908;2022-11-15T01:27:13;10.40;;;4.40;;
1993;SDS011;998;49.906;10.908;2022-11-15T01:29:40;9.50;;;4.47;;
1993;SDS011;998;49.906;10.908;2022-11-15T01:32:08;5.90;;;3.63;;
1993;SDS011;998;49.906;10.908;2022-11-15T01:34:35;11.40;;;4.60;;
1993;SDS011;998;49.906;10.908;2022-11-15T01:37:03;7.53;;;5.30;;
1993;SDS011;998;49.906;10.908;2022-11-15T01:39:30;6.87;;;5.07;;
1993;SDS011;998;49.906;10.908;2022-11-15T01:41:57;9.17;;;4.20;;
1993;SDS011;998;49.906;10.908;2022-11-15T01:44:36;9.63;;;3.90;;
1993;SDS011;998;49.906;10.908;2022-11-15T01:47:07;13.87;;;4.63;;
1993;SDS011;998;49.906;10.908;2022-11-15T01:49:39;7.80;;;4.47;;
1993;SDS011;998;49.906;10.908;2022-11-15T01:52:13;7.27;;;4.40;;
1993;SDS011;998;49.906;10.908;2022-11-15T01:54:42;11.33;;;5.10;;
1993;SDS011;998;49.906;10.908;2022-11-15T01:57:11;9.93;;;5.37;;
1993;SDS011;998;49.906;10.908;2022-11-15T01:59:41;6.67;;;4.50;;
1993;SDS011;998;49.906;10.908;2022-11-15T02:02:11;12.83;;;5.30;;
1993;SDS011;998;49.906;10.908;2022-11-15T02:04:40;19.60;;;14.80;;
1993;SDS011;998;49.906;10.908;2022-11-15T02:07:09;14.80;;;13.30;;
1993;SDS011;998;49.906;10.908;2022-11-15T02:09:39;12.60;;;8.10;;
1993;SDS011;998;49.906;10.908;2022-11-15T02:12:07;8.53;;;7.00;;
1993;SDS011;998;49.906;10.908;2022-11-15T02:14:37;8.43;;;5.80;;
1993;SDS011;998;49.906;10.908;2022-11-15T02:17:12;7.17;;;4.43;;
1993;SDS011;998;49.906;10.908;2022-11-15T02:20:10;8.20;;;4.33;;
1993;SDS011;998;49.906;10.908;2022-11-15T02:25:57;9.27;;;4.53;;
1993;SDS011;998;49.906;10.908;2022-11-15T02:28:48;6.97;;;4.80;;
1993;SDS011;998;49.906;10.908;2022-11-15T02:31:27;10.93;;;4.67;;
1993;SDS011;998;49.906;10.908;2022-11-15T02:33:59;9.53;;;4.70;;
1993;SDS011;998;49.906;10.908;2022-11-15T02:36:36;6.37;;;4.63;;
1993;SDS011;998;49.906;10.908;2022-11-15T02:39:10;8.93;;;5.20;;
1993;SDS011;998;49.906;10.908;2022-11-15T02:41:48;12.33;;;5.40;;
1993;SDS011;998;49.906;10.908;2022-11-15T02:44:22;5.13;;;3.93;;
1993;SDS011;998;49.906;10.908;2022-11-15T02:46:56;8.10;;;4.77;;
1993;SDS011;998;49.906;10.908;2022-11-15T02:49:42;6.00;;;4.10;;
1993;SDS011;998;49.906;10.908;2022-11-15T02:52:14;5.20;;;4.20;;
1993;SDS011;998;49.906;10.908;2022-11-15T02:54:42;7.73;;;4.83;;
1993;SDS011;998;49.906;10.908;2022-11-15T02:57:19;6.60;;;4.33;;
1993;SDS011;998;49.906;10.908;2022-11-15T03:00:07;8.77;;;5.10;;
1993;SDS011;998;49.906;10.908;2022-11-15T03:02:39;5.67;;;3.70;;
1993;SDS011;998;49.906;10.908;2022-11-15T03:05:24;5.20;;;3.50;;
1993;SDS011;998;49.906;10.908;2022-11-15T03:08:00;6.37;;;4.27;;
1993;SDS011;998;49.906;10.908;2022-11-15T03:10:36;6.77;;;4.30;;
1993;SDS011;998;49.906;10.908;2022-11-15T03:13:15;6.43;;;4.63;;
1993;SDS011;998;49.906;10.908;2022-11-15T03:15:50;7.10;;;4.90;;
1993;SDS011;998;49.906;10.908;2022-11-15T03:18:26;7.03;;;6.10;;
1993;SDS011;998;49.906;10.908;2022-11-15T03:20:58;8.80;;;6.07;;
1993;SDS011;998;49.906;10.908;2022-11-15T03:23:29;7.50;;;4.77;;
1993;SDS011;998;49.906;10.908;2022-11-15T03:25:58;9.50;;;5.43;;
1993;SDS011;998;49.906;10.908;2022-11-15T03:28:28;7.73;;;4.57;;
1993;SDS011;998;49.906;10.908;2022-11-15T03:31:00;6.10;;;4.50;;
1993;SDS011;998;49.906;10.908;2022-11-15T03:33:51;6.70;;;4.50;;
1993;SDS011;998;49.906;10.908;2022-11-15T03:36:22;8.70;;;4.47;;
1993;SDS011;998;49.906;10.908;2022-11-15T03:38:52;6.90;;;4.03;;
1993;SDS011;998;49.906;10.908;2022-11-15T03:41:24;6.03;;;4.20;;
1993;SDS011;998;49.906;10.908;2022-11-15T03:43:57;9.07;;;4.40;;
1993;SDS011;998;49.906;10.908;2022-11-15T03:46:32;5.63;;;3.93;;
1993;SDS011;998;49.906;10.908;2022-11-15T03:49:06;6.93;;;4.30;;
1993;SDS011;998;49.906;10.908;2022-11-15T03:51:36;5.90;;;4.03;;
1993;SDS011;998;49.906;10.908;2022-11-15T03:54:04;12.27;;;4.37;;
1993;SDS011;998;49.906;10.908;2022-11-15T03:56:32;5.50;;;3.97;;
1993;SDS011;998;49.906;10.908;2022-11-15T03:58:59;6.00;;;4.30;;
1993;SDS011;998;49.906;10.908;2022-11-15T04:01:26;5.13;;;4.03;;
1993;SDS011;998;49.906;10.908;2022-11-15T04:03:54;6.60;;;4.50;;
1993;SDS011;998;49.906;10.908;2022-11-15T04:06:23;11.60;;;5.97;;
1993;SDS011;998;49.906;10.908;2022-11-15T04:08:50;7.10;;;5.17;;
1993;SDS011;998;49.906;10.908;2022-11-15T04:11:17;7.37;;;5.20;;
1993;SDS011;998;49.906;10.908;2022-11-15T04:13:45;9.30;;;5.50;;
1993;SDS011;998;49.906;10.908;2022-11-15T04:16:12;7.67;;;4.70;;
1993;SDS011;998;49.906;10.908;2022-11-15T04:18:39;8.90;;;4.40;;
1993;SDS011;998;49.906;10.908;2022-11-15T04:21:07;9.57;;;4.47;;
1993;SDS011;998;49.906;10.908;2022-11-15T04:23:54;6.60;;;4.50;;
1993;SDS011;998;49.906;10.908;2022-11-15T04:26:39;6.13;;;4.77;;
1993;SDS011;998;49.906;10.908;2022-11-15T04:29:07;7.63;;;4.47;;
1993;SDS011;998;49.906;10.908;2022-11-15T04:31:52;6.80;;;4.50;;
1993;SDS011;998;49.906;10.908;2022-11-15T04:34:19;7.70;;;5.23;;
1993;SDS011;998;49.906;10.908;2022-11-15T04:36:47;9.43;;;5.70;;
1993;SDS011;998;49.906;10.908;2022-11-15T04:39:33;6.37;;;4.70;;
1993;SDS011;998;49.906;10.908;2022-11-15T04:42:00;8.00;;;4.77;;
1993;SDS011;998;49.906;10.908;2022-11-15T04:44:28;7.67;;;5.00;;
1993;SDS011;998;49.906;10.908;2022-11-15T04:46:55;6.70;;;5.00;;
1993;SDS011;998;49.906;10.908;2022-11-15T04:49:22;7.13;;;4.60;;
1993;SDS011;998;49.906;10.908;2022-11-15T04:51:50;6.77;;;4.83;;
1993;SDS011;998;49.906;10.908;2022-11-15T04:54:17;5.87;;;4.23;;
1993;SDS011;998;49.906;10.908;2022-11-15T04:56:46;8.20;;;5.07;;
1993;SDS011;998;49.906;10.908;2022-11-15T04:59:13;9.17;;;4.93;;
1993;SDS011;998;49.906;10.908;2022-11-15T05:01:41;8.67;;;4.90;;
1993;SDS011;998;49.906;10.908;2022-11-15T05:04:08;7.10;;;4.77;;
1993;SDS011;998;49.906;10.908;2022-11-15T05:06:50;8.63;;;4.77;;
1993;SDS011;998;49.906;10.908;2022-11-15T05:09:18;9.37;;;5.20;;
1993;SDS011;998;49.906;10.908;2022-11-15T05:11:47;8.10;;;4.90;;
1993;SDS011;998;49.906;10.908;2022-11-15T05:14:15;9.60;;;4.77;;
1993;SDS011;998;49.906;10.908;2022-11-15T05:16:42;10.13;;;5.93;;
1993;SDS011;998;49.906;10.908;2022-11-15T05:19:10;9.83;;;5.10;;
1993;SDS011;998;49.906;10.908;2022-11-15T05:21:37;9.20;;;4.73;;
1993;SDS011;998;49.906;10.908;2022-11-15T05:24:05;8.27;;;5.30;;
1993;SDS011;998;49.906;10.908;2022-11-15T05:26:33;10.23;;;6.17;;
1993;SDS011;998;49.906;10.908;2022-11-15T05:29:02;6.30;;;4.47;;
1993;SDS011;998;49.906;10.908;2022-11-15T05:31:30;8.23;;;4.43;;
1993;SDS011;998;49.906;10.908;2022-11-15T05:33:57;9.60;;;5.57;;
1993;SDS011;998;49.906;10.908;2022-11-15T05:36:27;7.47;;;4.87;;
1993;SDS011;998;49.906;10.908;2022-11-15T05:38:58;15.90;;;5.40;;
1993;SDS011;998;49.906;10.908;2022-11-15T05:41:26;9.37;;;5.37;;
1993;SDS011;998;49.906;10.908;2022-11-15T05:43:59;8.50;;;5.17;;
1993;SDS011;998;49.906;10.908;2022-11-15T05:46:29;8.73;;;4.80;;
1993;SDS011;998;49.906;10.908;2022-11-15T05:48:56;10.43;;;4.80;;
1993;SDS011;998;49.906;10.908;2022-11-15T05:51:24;7.43;;;4.77;;
1993;SDS011;998;49.906;10.908;2022-11-15T05:53:54;10.33;;;5.93;;
1993;SDS011;998;49.906;10.908;2022-11-15T05:56:23;13.93;;;4.70;;
1993;SDS011;998;49.906;10.908;2022-11-15T05:58:51;7.27;;;5.03;;
1993;SDS011;998;49.906;10.908;2022-11-15T06:01:20;8.77;;;5.10;;
1993;SDS011;998;49.906;10.908;2022-11-15T06:03:48;6.23;;;4.90;;
1993;SDS011;998;49.906;10.908;2022-11-15T06:06:15;8.30;;;5.60;;
1993;SDS011;998;49.906;10.908;2022-11-15T06:08:43;6.83;;;4.30;;
1993;SDS011;998;49.906;10.908;2022-11-15T06:11:10;7.50;;;4.63;;
1993;SDS011;998;49.906;10.908;2022-11-15T06:13:38;8.60;;;4.80;;
1993;SDS011;998;49.906;10.908;2022-11-15T06:16:05;7.03;;;4.87;;
1993;SDS011;998;49.906;10.908;2022-11-15T06:18:33;7.67;;;4.40;;
1993;SDS011;998;49.906;10.908;2022-11-15T06:21:02;6.70;;;4.47;;
1993;SDS011;998;49.906;10.908;2022-11-15T06:23:31;8.07;;;4.40;;
1993;SDS011;998;49.906;10.908;2022-11-15T06:25:59;5.37;;;3.83;;
1993;SDS011;998;49.906;10.908;2022-11-15T06:28:28;6.50;;;4.77;;
1993;SDS011;998;49.906;10.908;2022-11-15T06:30:55;9.07;;;5.37;;
1993;SDS011;998;49.906;10.908;2022-11-15T06:33:28;8.73;;;5.30;;
1993;SDS011;998;49.906;10.908;2022-11-15T06:35:55;9.00;;;5.13;;
1993;SDS011;998;49.906;10.908;2022-11-15T06:38:27;10.13;;;5.47;;
1993;SDS011;998;49.906;10.908;2022-11-15T06:40:55;10.43;;;5.30;;
1993;SDS011;998;49.906;10.908;2022-11-15T06:43:26;9.20;;;5.90;;
1993;SDS011;998;49.906;10.908;2022-11-15T06:45:54;11.07;;;5.50;;
1993;SDS011;998;49.906;10.908;2022-11-15T06:48:21;9.23;;;5.40;;
1993;SDS011;998;49.906;10.908;2022-11-15T06:50:50;6.47;;;4.30;;
1993;SDS011;998;49.906;10.908;2022-11-15T06:53:18;16.00;;;5.93;;
1993;SDS011;998;49.906;10.908;2022-11-15T06:55:47;10.43;;;5.30;;
1993;SDS011;998;49.906;10.908;2022-11-15T06:58:14;8.53;;;5.80;;
1993;SDS011;998;49.906;10.908;2022-11-15T07:00:42;8.00;;;6.23;;
1993;SDS011;998;49.906;10.908;2022-11-15T07:03:10;8.23;;;5.47;;
1993;SDS011;998;49.906;10.908;2022-11-15T07:05:37;9.53;;;6.53;;
1993;SDS011;998;49.906;10.908;2022-11-15T07:08:04;17.90;;;5.70;;
1993;SDS011;998;49.906;10.908;2022-11-15T07:10:32;10.27;;;5.23;;
1993;SDS011;998;49.906;10.908;2022-11-15T07:13:01;8.30;;;5.27;;
1993;SDS011;998;49.906;10.908;2022-11-15T07:15:28;7.40;;;5.30;;
1993;SDS011;998;49.906;10.908;2022-11-15T07:17:55;9.07;;;5.47;;
1993;SDS011;998;49.906;10.908;2022-11-15T07:20:26;10.40;;;4.67;;
1993;SDS011;998;49.906;10.908;2022-11-15T07:22:59;7.83;;;5.67;;
1993;SDS011;998;49.906;10.908;2022-11-15T07:25:27;10.23;;;6.27;;
1993;SDS011;998;49.906;10.908;2022-11-15T07:27:55;10.30;;;6.00;;
1993;SDS011;998;49.906;10.908;2022-11-15T07:30:24;9.87;;;6.10;;
1993;SDS011;998;49.906;10.908;2022-11-15T07:32:52;9.40;;;5.73;;
1993;SDS011;998;49.906;10.908;2022-11-15T07:35:20;9.60;;;6.87;;
1993;SDS011;998;49.906;10.908;2022-11-15T07:37:54;11.10;;;7.03;;
1993;SDS011;998;49.906;10.908;2022-11-15T07:40:22;11.97;;;7.70;;
1993;SDS011;998;49.906;10.908;2022-11-15T07:42:50;13.10;;;6.77;;
1993;SDS011;998;49.906;10.908;2022-11-15T07:45:21;14.73;;;7.17;;
1993;SDS011;998;49.906;10.908;2022-11-15T07:47:52;20.67;;;7.50;;
1993;SDS011;998;49.906;10.908;2022-11-15T07:50:21;11.47;;;7.50;;
1993;SDS011;998;49.906;10.908;2022-11-15T07:52:53;12.80;;;6.40;;
1993;SDS011;998;49.906;10.908;2022-11-15T07:55:21;12.27;;;7.00;;
1993;SDS011;998;49.906;10.908;2022-11-15T07:57:48;10.13;;;5.77;;
1993;SDS011;998;49.906;10.908;2022-11-15T08:00:16;9.60;;;5.60;;
1993;SDS011;998;49.906;10.908;2022-11-15T08:02:46;9.93;;;5.80;;
1993;SDS011;998;49.906;10.908;2022-11-15T08:05:13;11.80;;;6.97;;
1993;SDS011;998;49.906;10.908;2022-11-15T08:07:41;12.03;;;7.00;;
1993;SDS011;998;49.906;10.908;2022-11-15T08:10:08;11.10;;;6.50;;
1993;SDS011;998;49.906;10.908;2022-11-15T08:12:37;13.80;;;5.80;;
1993;SDS011;998;49.906;10.908;2022-11-15T08:15:04;7.63;;;4.87;;
1993;SDS011;998;49.906;10.908;2022-11-15T08:17:32;12.40;;;6.17;;
1993;SDS011;998;49.906;10.908;2022-11-15T08:20:02;10.67;;;6.93;;
1993;SDS011;998;49.906;10.908;2022-11-15T08:22:29;10.83;;;5.40;;
1993;SDS011;998;49.906;10.908;2022-11-15T08:24:57;10.80;;;6.60;;
1993;SDS011;998;49.906;10.908;2022-11-15T08:27:24;10.47;;;6.97;;
1993;SDS011;998;49.906;10.908;2022-11-15T08:29:52;12.40;;;6.87;;
1993;SDS011;998;49.906;10.908;2022-11-15T08:32:19;10.80;;;5.27;;
1993;SDS011;998;49.906;10.908;2022-11-15T08:34:46;8.27;;;5.80;;
1993;SDS011;998;49.906;10.908;2022-11-15T08:37:15;8.77;;;5.00;;
1993;SDS011;998;49.906;10.908;2022-11-15T08:39:42;6.87;;;5.43;;
1993;SDS011;998;49.906;10.908;2022-11-15T08:42:10;8.90;;;5.10;;
1993;SDS011;998;49.906;10.908;2022-11-15T08:44:38;10.07;;;5.57;;
1993;SDS011;998;49.906;10.908;2022-11-15T08:47:05;8.53;;;5.73;;
1993;SDS011;998;49.906;10.908;2022-11-15T08:49:33;7.60;;;5.40;;
1993;SDS011;998;49.906;10.908;2022-11-15T08:52:00;7.93;;;5.40;;
1993;SDS011;998;49.906;10.908;2022-11-15T08:54:29;9.10;;;5.20;;
1993;SDS011;998;49.906;10.908;2022-11-15T08:56:56;10.57;;;6.63;;
1993;SDS011;998;49.906;10.908;2022-11-15T08:59:24;13.77;;;6.47;;
1993;SDS011;998;49.906;10.908;2022-11-15T09:01:51;8.33;;;5.47;;
1993;SDS011;998;49.906;10.908;2022-11-15T09:04:19;9.20;;;5.93;;
1993;SDS011;998;49.906;10.908;2022-11-15T09:06:46;11.17;;;6.13;;
1993;SDS011;998;49.906;10.908;2022-11-15T09:09:14;9.40;;;6.57;;
1993;SDS011;998;49.906;10.908;2022-11-15T09:11:42;8.93;;;5.20;;
1993;SDS011;998;49.906;10.908;2022-11-15T09:14:10;12.93;;;5.87;;
1993;SDS011;998;49.906;10.908;2022-11-15T09:16:37;10.50;;;6.33;;
1993;SDS011;998;49.906;10.908;2022-11-15T09:19:05;11.70;;;3.90;;
1993;SDS011;998;49.906;10.908;2022-11-15T09:21:33;5.40;;;3.97;;
1993;SDS011;998;49.906;10.908;2022-11-15T09:24:00;6.50;;;4.33;;
1993;SDS011;998;49.906;10.908;2022-11-15T09:26:29;7.10;;;4.53;;
1993;SDS011;998;49.906;10.908;2022-11-15T09:28:58;7.87;;;4.40;;
1993;SDS011;998;49.906;10.908;2022-11-15T09:31:26;7.07;;;3.50;;
1993;SDS011;998;49.906;10.908;2022-11-15T09:33:54;6.03;;;4.33;;
1993;SDS011;998;49.906;10.908;2022-11-15T09:36:22;6.43;;;4.00;;
1993;SDS011;998;49.906;10.908;2022-11-15T09:38:49;9.20;;;4.57;;
1993;SDS011;998;49.906;10.908;2022-11-15T09:41:25;10.67;;;5.83;;
1993;SDS011;998;49.906;10.908;2022-11-15T09:44:09;7.93;;;5.17;;
1993;SDS011;998;49.906;10.908;2022-11-15T09:47:02;9.27;;;5.30;;
1993;SDS011;998;49.906;10.908;2022-11-15T09:49:52;5.03;;;3.00;;
1993;SDS011;998;49.906;10.908;2022-11-15T09:52:21;6.47;;;3.60;;
1993;SDS011;998;49.906;10.908;2022-11-15T09:54:49;6.27;;;3.70;;
1993;SDS011;998;49.906;10.908;2022-11-15T09:57:20;5.37;;;3.83;;
1993;SDS011;998;49.906;10.908;2022-11-15T09:59:55;13.57;;;3.70;;
1993;SDS011;998;49.906;10.908;2022-11-15T10:02:33;6.47;;;3.80;;
1993;SDS011;998;49.906;10.908;2022-11-15T10:05:14;10.40;;;4.20;;
1993;SDS011;998;49.906;10.908;2022-11-15T10:07:46;11.83;;;3.70;;
1993;SDS011;998;49.906;10.908;2022-11-15T10:10:20;5.67;;;3.60;;
1993;SDS011;998;49.906;10.908;2022-11-15T10:12:52;5.10;;;3.33;;
1993;SDS011;998;49.906;10.908;2022-11-15T10:15:21;4.70;;;2.87;;
1993;SDS011;998;49.906;10.908;2022-11-15T10:17:55;9.10;;;3.30;;
1993;SDS011;998;49.906;10.908;2022-11-15T10:20:34;4.90;;;3.50;;
1993;SDS011;998;49.906;10.908;2022-11-15T10:23:11;9.77;;;3.70;;
1993;SDS011;998;49.906;10.908;2022-11-15T10:25:40;4.43;;;2.70;;
1993;SDS011;998;49.906;10.908;2022-11-15T10:28:11;4.13;;;3.00;;
1993;SDS011;998;49.906;10.908;2022-11-15T10:30:44;5.03;;;3.83;;
1993;SDS011;998;49.906;10.908;2022-11-15T10:33:18;4.90;;;3.10;;
1993;SDS011;998;49.906;10.908;2022-11-15T10:36:13;9.30;;;2.77;;
1993;SDS011;998;49.906;10.908;2022-11-15T10:38:58;4.53;;;3.20;;
1993;SDS011;998;49.906;10.908;2022-11-15T10:41:29;9.17;;;3.13;;
1993;SDS011;998;49.906;10.908;2022-11-15T10:44:02;4.60;;;3.00;;
1993;SDS011;998;49.906;10.908;2022-11-15T10:46:40;5.13;;;2.90;;
1993;SDS011;998;49.906;10.908;2022-11-15T10:49:12;7.10;;;3.00;;
1993;SDS011;998;49.906;10.908;2022-11-15T10:51:41;4.30;;;2.80;;
1993;SDS011;998;49.906;10.908;2022-11-15T10:54:11;5.50;;;3.37;;
1993;SDS011;998;49.906;10.908;2022-11-15T10:56:40;6.10;;;3.33;;
1993;SDS011;998;49.906;10.908;2022-11-15T10:59:14;4.90;;;2.60;;
1993;SDS011;998;49.906;10.908;2022-11-15T11:01:49;4.60;;;2.70;;
1993;SDS011;998;49.906;10.908;2022-11-15T11:04:17;5.43;;;2.67;;
1993;SDS011;998;49.906;10.908;2022-11-15T11:06:48;5.23;;;2.50;;
1993;SDS011;998;49.906;10.908;2022-11-15T11:09:27;5.50;;;3.40;;
1993;SDS011;998;49.906;10.908;2022-11-15T11:11:57;4.00;;;2.53;;
1993;SDS011;998;49.906;10.908;2022-11-15T11:14:26;3.80;;;2.80;;
1993;SDS011;998;49.906;10.908;2022-11-15T11:17:00;4.70;;;2.73;;
1993;SDS011;998;49.906;10.908;2022-11-15T11:22:22;3.90;;;2.90;;
1993;SDS011;998;49.906;10.908;2022-11-15T11:25:04;6.03;;;3.93;;
1993;SDS011;998;49.906;10.908;2022-11-15T11:27:43;5.13;;;2.80;;
1993;SDS011;998;49.906;10.908;2022-11-15T11:30:17;5.20;;;3.17;;
1993;SDS011;998;49.906;10.908;2022-11-15T11:32:54;4.70;;;2.90;;
1993;SDS011;998;49.906;10.908;2022-11-15T11:35:29;5.40;;;2.77;;
1993;SDS011;998;49.906;10.908;2022-11-15T11:38:06;3.23;;;2.20;;
1993;SDS011;998;49.906;10.908;2022-11-15T11:40:50;3.20;;;2.27;;
1993;SDS011;998;49.906;10.908;2022-11-15T11:43:26;5.93;;;3.30;;
1993;SDS011;998;49.906;10.908;2022-11-15T11:48:56;4.57;;;2.37;;
1993;SDS011;998;49.906;10.908;2022-11-15T11:51:28;3.53;;;2.20;;
1993;SDS011;998;49.906;10.908;2022-11-15T11:54:05;3.80;;;2.17;;
1993;SDS011;998;49.906;10.908;2022-11-15T11:56:39;4.20;;;2.30;;
1993;SDS011;998;49.906;10.908;2022-11-15T11:59:10;5.50;;;2.20;;
1993;SDS011;998;49.906;10.908;2022-11-15T12:01:46;3.70;;;2.63;;
1993;SDS011;998;49.906;10.908;2022-11-15T12:04:16;3.83;;;2.47;;
1993;SDS011;998;49.906;10.908;2022-11-15T12:06:48;4.23;;;2.10;;
1993;SDS011;998;49.906;10.908;2022-11-15T12:09:21;3.73;;;2.53;;
1993;SDS011;998;49.906;10.908;2022-11-15T12:11:59;4.10;;;3.50;;
1993;SDS011;998;49.906;10.908;2022-11-15T12:14:35;4.17;;;2.70;;
1993;SDS011;998;49.906;10.908;2022-11-15T12:17:08;7.00;;;2.37;;
1993;SDS011;998;49.906;10.908;2022-11-15T12:19:38;3.77;;;2.27;;
1993;SDS011;998;49.906;10.908;2022-11-15T12:22:10;3.73;;;2.20;;
1993;SDS011;998;49.906;10.908;2022-11-15T12:24:43;3.97;;;2.53;;
1993;SDS011;998;49.906;10.908;2022-11-15T12:27:15;5.27;;;3.23;;
1993;SDS011;998;49.906;10.908;2022-11-15T12:29:46;3.60;;;2.30;;
1993;SDS011;998;49.906;10.908;2022-11-15T12:32:21;5.70;;;2.00;;
1993;SDS011;998;49.906;10.908;2022-11-15T12:34:54;4.80;;;2.80;;
1993;SDS011;998;49.906;10.908;2022-11-15T12:37:33;5.67;;;2.63;;
1993;SDS011;998;49.906;10.908;2022-11-15T12:42:58;5.13;;;2.90;;
1993;SDS011;998;49.906;10.908;2022-11-15T12:45:41;5.00;;;3.00;;
1993;SDS011;998;49.906;10.908;2022-11-15T12:51:14;3.60;;;2.50;;
1993;SDS011;998;49.906;10.908;2022-11-15T12:53:41;5.27;;;2.63;;
1993;SDS011;998;49.906;10.908;2022-11-15T12:56:09;4.40;;;2.37;;
1993;SDS011;998;49.906;10.908;2022-11-15T12:58:48;3.60;;;2.33;;
1993;SDS011;998;49.906;10.908;2022-11-15T13:04:25;4.90;;;2.47;;
1993;SDS011;998;49.906;10.908;2022-11-15T13:06:56;3.93;;;2.63;;
1993;SDS011;998;49.906;10.908;2022-11-15T13:18:27;5.20;;;2.43;;
1993;SDS011;998;49.906;10.908;2022-11-15T13:20:59;4.30;;;2.77;;
1993;SDS011;998;49.906;10.908;2022-11-15T13:23:52;4.47;;;2.80;;
1993;SDS011;998;49.906;10.908;2022-11-15T13:26:21;4.37;;;3.00;;
1993;SDS011;998;49.906;10.908;2022-11-15T13:28:49;4.40;;;2.67;;
1993;SDS011;998;49.906;10.908;2022-11-15T13:31:24;5.27;;;3.03;;
1993;SDS011;998;49.906;10.908;2022-11-15T13:33:55;6.30;;;3.07;;
1993;SDS011;998;49.906;10.908;2022-11-15T13:36:26;4.47;;;2.93;;
1993;SDS011;998;49.906;10.908;2022-11-15T13:38:58;4.70;;;2.70;;
1993;SDS011;998;49.906;10.908;2022-11-15T13:41:27;4.53;;;3.00;;
1993;SDS011;998;49.906;10.908;2022-11-15T13:43:56;5.77;;;3.40;;
1993;SDS011;998;49.906;10.908;2022-11-15T13:46:24;5.90;;;3.07;;
1993;SDS011;998;49.906;10.908;2022-11-15T13:48:54;7.47;;;2.80;;
1993;SDS011;998;49.906;10.908;2022-11-15T13:51:33;5.23;;;3.10;;
1993;SDS011;998;49.906;10.908;2022-11-15T13:54:06;3.70;;;2.60;;
1993;SDS011;998;49.906;10.908;2022-11-15T13:56:41;8.70;;;3.23;;
1993;SDS011;998;49.906;10.908;2022-11-15T13:59:14;6.23;;;3.70;;
1993;SDS011;998;49.906;10.908;2022-11-15T14:01:45;20.70;;;12.57;;
1993;SDS011;998;49.906;10.908;2022-11-15T14:04:13;8.03;;;4.63;;
1993;SDS011;998;49.906;10.908;2022-11-15T14:06:45;5.50;;;3.47;;
1993;SDS011;998;49.906;10.908;2022-11-15T14:12:19;5.07;;;3.10;;
1993;SDS011;998;49.906;10.908;2022-11-15T14:14:50;5.03;;;2.90;;
1993;SDS011;998;49.906;10.908;2022-11-15T14:17:19;7.77;;;4.30;;
1993;SDS011;998;49.906;10.908;2022-11-15T14:19:48;7.80;;;3.60;;
1993;SDS011;998;49.906;10.908;2022-11-15T14:22:18;6.70;;;3.30;;
1993;SDS011;998;49.906;10.908;2022-11-15T14:27:33;4.93;;;3.40;;
1993;SDS011;998;49.906;10.908;2022-11-15T14:30:01;7.03;;;3.40;;
1993;SDS011;998;49.906;10.908;2022-11-15T14:32:29;5.37;;;2.97;;
1993;SDS011;998;49.906;10.908;2022-11-15T14:35:09;8.70;;;3.10;;
1993;SDS011;998;49.906;10.908;2022-11-15T14:37:41;7.50;;;4.17;;
1993;SDS011;998;49.906;10.908;2022-11-15T14:40:13;7.00;;;3.70;;
1993;SDS011;998;49.906;10.908;2022-11-15T14:42:42;4.50;;;3.27;;
1993;SDS011;998;49.906;10.908;2022-11-15T14:45:12;6.87;;;4.30;;
1993;SDS011;998;49.906;10.908;2022-11-15T14:47:41;6.53;;;3.43;;
1993;SDS011;998;49.906;10.908;2022-11-15T14:50:11;11.13;;;4.87;;
1993;SDS011;998;49.906;10.908;2022-11-15T14:52:39;6.80;;;4.57;;
1993;SDS011;998;49.906;10.908;2022-11-15T14:55:14;13.90;;;4.43;;
1993;SDS011;998;49.906;10.908;2022-11-15T14:57:44;6.60;;;4.53;;
1993;SDS011;998;49.906;10.908;2022-11-15T15:00:12;12.03;;;4.33;;
1993;SDS011;998;49.906;10.908;2022-11-15T15:02:41;6.57;;;4.10;;
1993;SDS011;998;49.906;10.908;2022-11-15T15:05:13;5.27;;;3.40;;
1993;SDS011;998;49.906;10.908;2022-11-15T15:07:42;5.43;;;3.70;;
1993;SDS011;998;49.906;10.908;2022-11-15T15:10:10;8.17;;;4.50;;
1993;SDS011;998;49.906;10.908;2022-11-15T15:12:39;7.90;;;3.53;;
1993;SDS011;998;49.906;10.908;2022-11-15T15:15:11;6.70;;;4.07;;
1993;SDS011;998;49.906;10.908;2022-11-15T15:17:41;6.60;;;5.13;;
1993;SDS011;998;49.906;10.908;2022-11-15T15:20:08;6.07;;;3.83;;
1993;SDS011;998;49.906;10.908;2022-11-15T15:22:37;7.60;;;3.93;;
1993;SDS011;998;49.906;10.908;2022-11-15T15:25:10;7.10;;;3.80;;
1993;SDS011;998;49.906;10.908;2022-11-15T15:27:47;6.80;;;4.40;;
1993;SDS011;998;49.906;10.908;2022-11-15T15:30:15;9.33;;;5.30;;
1993;SDS011;998;49.906;10.908;2022-11-15T15:32:43;8.17;;;3.80;;
1993;SDS011;998;49.906;10.908;2022-11-15T15:35:11;10.87;;;3.90;;
1993;SDS011;998;49.906;10.908;2022-11-15T15:37:40;12.23;;;4.37;;
1993;SDS011;998;49.906;10.908;2022-11-15T15:40:10;8.80;;;3.90;;
1993;SDS011;998;49.906;10.908;2022-11-15T15:42:41;6.17;;;3.90;;
1993;SDS011;998;49.906;10.908;2022-11-15T15:45:10;8.30;;;4.23;;
1993;SDS011;998;49.906;10.908;2022-11-15T15:47:38;4.97;;;3.60;;
1993;SDS011;998;49.906;10.908;2022-11-15T15:50:12;5.90;;;3.50;;
1993;SDS011;998;49.906;10.908;2022-11-15T15:52:48;6.70;;;4.10;;
1993;SDS011;998;49.906;10.908;2022-11-15T15:55:15;13.60;;;4.40;;
1993;SDS011;998;49.906;10.908;2022-11-15T15:57:43;6.87;;;4.20;;
1993;SDS011;998;49.906;10.908;2022-11-15T16:00:13;6.77;;;4.00;;
1993;SDS011;998;49.906;10.908;2022-11-15T16:02:41;8.30;;;3.97;;
1993;SDS011;998;49.906;10.908;2022-11-15T16:05:09;8.07;;;4.10;;
1993;SDS011;998;49.906;10.908;2022-11-15T16:07:37;10.10;;;6.03;;